Time;durP1;ratioP1;P1;durP2;ratioP2;P2;SDS_P1;SDS_P2;PMS_P1;PMS_P2;Temp;Humidity;BMP_temperature;BMP_pressure;BME280_temperature;BME280_humidity;BME280_pressure;Samples;Min_cycle;Max_cycle;Signal;HPM_P1;HPM_P2
2023/08/29 00:00:59;;;;;;;3.83;1.70;;;14.60;99.90;;;;;;5134461;28;20050;-39
2023/08/29 00:03:30;;;;;;;2.90;1.25;;;14.60;99.90;;;;;;5115737;28;20047;-40
2023/08/29 00:06:04;;;;;;;4.30;1.90;;;14.60;99.90;;;;;;5134083;27;20065;-40
2023/08/29 00:08:33;;;;;;;4.32;1.50;;;14.60;99.90;;;;;;5136876;27;20395;-39
2023/08/29 00:10:59;;;;;;;3.30;1.33;;;14.60;99.90;;;;;;5138154;27;20051;-39
2023/08/29 00:13:25;;;;;;;4.13;1.70;;;14.50;99.90;;;;;;5137803;27;20130;-39
2023/08/29 00:15:51;;;;;;;2.88;1.25;;;14.50;99.90;;;;;;5137724;27;20571;-39
2023/08/29 00:18:19;;;;;;;2.63;1.27;;;14.50;99.90;;;;;;5119338;27;20035;-39
2023/08/29 00:20:45;;;;;;;3.95;1.55;;;14.50;99.90;;;;;;5137410;27;20039;-39
2023/08/29 00:23:11;;;;;;;3.85;1.50;;;14.50;99.90;;;;;;5119404;27;20045;-40
2023/08/29 00:25:37;;;;;;;4.17;1.90;;;14.50;99.90;;;;;;5119375;27;20047;-39
2023/08/29 00:28:03;;;;;;;2.97;1.48;;;14.50;99.90;;;;;;5137661;27;20047;-39
2023/08/29 00:30:32;;;;;;;;;;;14.40;99.90;;;;;;5137948;27;20060;-39
2023/08/29 00:32:58;;;;;;;3.55;1.63;;;14.40;99.90;;;;;;5137175;27;19966;-39
2023/08/29 00:35:24;;;;;;;4.23;1.97;;;14.30;99.90;;;;;;5119066;27;20117;-40
2023/08/29 00:37:49;;;;;;;3.37;1.47;;;14.30;99.90;;;;;;5137453;27;20050;-39
2023/08/29 00:40:16;;;;;;;5.03;1.60;;;14.20;99.90;;;;;;5137277;27;20277;-39
2023/08/29 00:42:41;;;;;;;;;;;14.20;99.90;;;;;;5119769;27;20051;-39
2023/08/29 00:45:07;;;;;;;3.33;1.33;;;14.10;99.90;;;;;;5137116;27;19919;-39
2023/08/29 00:47:33;;;;;;;5.90;1.80;;;14.10;99.90;;;;;;5136999;27;20039;-39
2023/08/29 00:49:59;;;;;;;4.03;1.80;;;14.10;99.90;;;;;;5137007;27;20039;-40
2023/08/29 00:52:25;;;;;;;3.72;1.65;;;14.10;99.90;;;;;;5136800;27;20487;-39
2023/08/29 00:54:50;;;;;;;9.55;2.25;;;14.10;99.90;;;;;;5118878;27;20096;-39
2023/08/29 00:57:16;;;;;;;4.80;2.00;;;14.10;99.90;;;;;;5136673;27;20105;-39
2023/08/29 00:59:42;;;;;;;4.35;1.70;;;14.10;99.90;;;;;;5136990;27;20039;-39
2023/08/29 01:02:07;;;;;;;3.17;1.37;;;14.10;99.90;;;;;;5136738;27;20107;-39
2023/08/29 01:04:33;;;;;;;3.27;1.50;;;14.10;99.90;;;;;;5136542;27;20050;-39
2023/08/29 01:06:59;;;;;;;5.17;1.90;;;14.10;99.90;;;;;;5136934;27;20628;-39
2023/08/29 01:09:25;;;;;;;3.95;1.63;;;14.10;99.90;;;;;;5137296;27;20558;-39
2023/08/29 01:12:06;;;;;;;5.05;1.67;;;14.00;99.90;;;;;;5136508;27;20534;-39
2023/08/29 01:14:40;;;;;;;4.95;2.05;;;14.00;99.90;;;;;;5136614;27;20039;-39
2023/08/29 01:17:12;;;;;;;4.45;1.63;;;14.00;99.90;;;;;;5136237;27;20047;-40
2023/08/29 01:19:40;;;;;;;5.30;1.60;;;14.00;99.90;;;;;;5135781;27;20047;-39
2023/08/29 01:22:44;;;;;;;4.18;1.75;;;14.00;99.90;;;;;;5136318;27;20086;-39
2023/08/29 01:25:24;;;;;;;4.68;2.20;;;14.00;99.90;;;;;;5132981;27;20499;-39
2023/08/29 01:27:51;;;;;;;4.50;2.00;;;13.90;99.90;;;;;;5136352;27;20051;-39
2023/08/29 01:30:17;;;;;;;4.40;1.98;;;13.90;99.90;;;;;;5136252;27;20449;-39
2023/08/29 01:32:44;;;;;;;4.30;1.70;;;13.90;99.90;;;;;;5136191;27;20051;-39
2023/08/29 01:35:13;;;;;;;4.07;1.70;;;13.80;99.90;;;;;;5136091;27;20449;-39
2023/08/29 01:37:39;;;;;;;4.38;2.00;;;13.80;99.90;;;;;;5136028;27;20082;-39
2023/08/29 01:40:06;;;;;;;3.75;1.77;;;13.80;99.90;;;;;;5135872;27;20089;-39
2023/08/29 01:42:32;;;;;;;3.90;1.70;;;13.80;99.90;;;;;;5136066;27;20047;-39
2023/08/29 01:44:57;;;;;;;5.10;2.22;;;13.80;99.90;;;;;;5135685;27;20522;-39
2023/08/29 01:47:23;;;;;;;5.43;2.17;;;13.70;99.90;;;;;;5136034;27;20043;-39
2023/08/29 01:49:51;;;;;;;4.22;1.90;;;13.70;99.90;;;;;;5135938;27;20455;-39
2023/08/29 01:52:16;;;;;;;4.50;2.30;;;13.70;99.90;;;;;;5096075;28;20051;-39
2023/08/29 01:54:42;;;;;;;5.68;2.88;;;13.60;99.90;;;;;;5094691;28;20055;-39
2023/08/29 01:57:10;;;;;;;5.50;1.90;;;13.60;99.90;;;;;;5094872;28;20037;-39
2023/08/29 01:59:37;;;;;;;4.63;2.00;;;13.60;99.90;;;;;;5094706;28;20044;-39
2023/08/29 02:02:03;;;;;;;4.75;1.80;;;13.60;99.90;;;;;;5094201;28;20059;-39
2023/08/29 02:04:29;;;;;;;5.38;1.90;;;13.60;99.90;;;;;;5094513;28;20396;-39
2023/08/29 02:06:55;;;;;;;4.60;2.30;;;13.60;99.90;;;;;;5093593;28;20079;-39
2023/08/29 02:09:20;;;;;;;4.63;2.00;;;13.60;99.90;;;;;;5094305;28;20125;-39
2023/08/29 02:11:46;;;;;;;4.03;1.77;;;13.60;99.90;;;;;;5094850;28;20529;-39
2023/08/29 02:14:12;;;;;;;4.10;1.70;;;13.60;99.90;;;;;;5094387;28;20044;-39
2023/08/29 02:16:38;;;;;;;4.40;1.95;;;13.50;99.90;;;;;;5094464;28;20047;-39
2023/08/29 02:19:04;;;;;;;6.22;2.15;;;13.50;99.90;;;;;;5094201;28;20040;-39
2023/08/29 02:21:30;;;;;;;4.72;2.00;;;13.40;99.90;;;;;;5094415;28;20040;-39
2023/08/29 02:23:57;;;;;;;4.13;1.88;;;13.40;99.90;;;;;;5094268;28;20054;-39
2023/08/29 02:26:23;;;;;;;4.55;1.85;;;13.40;99.90;;;;;;5094254;28;20044;-39
2023/08/29 02:28:53;;;;;;;4.63;1.90;;;13.50;99.90;;;;;;5094493;28;20101;-39
2023/08/29 02:31:19;;;;;;;4.72;1.92;;;13.50;99.90;;;;;;5093220;28;20280;-39
2023/08/29 02:33:45;;;;;;;5.07;2.20;;;13.50;99.90;;;;;;5094153;28;20044;-39
2023/08/29 02:36:12;;;;;;;4.73;1.93;;;13.50;99.90;;;;;;5093999;28;20040;-39
2023/08/29 02:38:38;;;;;;;5.05;2.22;;;13.50;99.90;;;;;;5093916;28;20427;-39
2023/08/29 02:41:05;;;;;;;5.53;2.45;;;13.50;99.90;;;;;;5094099;28;20047;-39
2023/08/29 02:43:31;;;;;;;5.60;2.58;;;13.50;99.90;;;;;;5093977;28;20507;-39
2023/08/29 02:45:58;;;;;;;3.83;1.87;;;13.50;99.90;;;;;;5093938;28;20048;-39
2023/08/29 02:48:24;;;;;;;5.65;2.35;;;13.50;99.90;;;;;;5093932;28;20040;-39
2023/08/29 02:50:51;;;;;;;4.10;1.80;;;13.50;99.90;;;;;;5092569;28;20135;-40
2023/08/29 02:53:17;;;;;;;4.90;2.10;;;13.50;99.90;;;;;;5093869;28;20067;-40
2023/08/29 02:55:43;;;;;;;4.78;2.30;;;13.50;99.90;;;;;;5094436;28;20050;-39
2023/08/29 02:58:08;;;;;;;6.20;2.05;;;13.50;99.90;;;;;;5093900;28;20043;-39
2023/08/29 03:00:35;;;;;;;5.07;1.63;;;13.50;99.90;;;;;;5093596;28;20087;-39
2023/08/29 03:03:02;;;;;;;5.15;2.15;;;13.40;99.90;;;;;;5093738;28;20052;-39
2023/08/29 03:05:28;;;;;;;5.50;2.60;;;13.40;99.90;;;;;;5093521;28;20101;-40
2023/08/29 03:07:55;;;;;;;4.70;1.97;;;13.40;99.90;;;;;;5093519;28;20044;-39
2023/08/29 03:10:20;;;;;;;;;;;13.50;99.90;;;;;;5094443;28;20431;-40
2023/08/29 03:12:46;;;;;;;4.68;2.15;;;13.40;99.90;;;;;;5093650;28;19969;-39
2023/08/29 03:15:12;;;;;;;5.30;2.50;;;13.40;99.90;;;;;;5093547;28;20043;-39
2023/08/29 03:17:37;;;;;;;5.13;2.28;;;13.40;99.90;;;;;;5093413;28;20040;-39
2023/08/29 03:20:05;;;;;;;5.77;1.90;;;13.40;99.90;;;;;;5093359;28;20040;-40
2023/08/29 03:22:30;;;;;;;5.22;2.42;;;13.40;99.90;;;;;;5093623;28;20048;-39
2023/08/29 03:24:56;;;;;;;3.63;1.80;;;13.40;99.90;;;;;;5093633;28;20055;-39
2023/08/29 03:27:22;;;;;;;5.20;2.07;;;13.40;99.90;;;;;;5093438;28;20036;-39
2023/08/29 03:29:51;;;;;;;4.47;2.07;;;13.50;99.90;;;;;;5093463;28;20051;-39
2023/08/29 03:32:17;;;;;;;5.13;2.10;;;13.40;99.90;;;;;;5093310;28;20511;-39
2023/08/29 03:34:43;;;;;;;4.78;2.38;;;13.40;99.90;;;;;;5093300;28;20040;-39
2023/08/29 03:37:08;;;;;;;3.87;1.60;;;13.40;99.90;;;;;;5093126;28;20052;-39
2023/08/29 03:39:34;;;;;;;5.77;1.57;;;13.40;99.90;;;;;;5092305;28;20044;-39
2023/08/29 03:42:00;;;;;;;3.23;1.53;;;13.30;99.90;;;;;;5094070;28;20078;-39
2023/08/29 03:44:25;;;;;;;3.20;1.17;;;13.20;99.90;;;;;;5097330;28;20203;-39
2023/08/29 03:46:51;;;;;;;3.50;1.50;;;13.10;99.90;;;;;;5097167;28;20094;-39
2023/08/29 03:49:16;;;;;;;2.63;1.10;;;13.00;99.90;;;;;;5097085;28;20044;-39
2023/08/29 03:51:42;;;;;;;4.00;1.90;;;12.90;99.90;;;;;;5118817;27;20151;-39
2023/08/29 03:54:08;;;;;;;3.43;1.67;;;12.90;99.90;;;;;;5138212;27;20078;-39
2023/08/29 03:56:34;;;;;;;3.47;1.45;;;12.80;99.90;;;;;;5119816;27;20051;-39
2023/08/29 03:59:01;;;;;;;4.43;1.77;;;12.80;99.90;;;;;;5137986;27;20070;-39
2023/08/29 04:01:29;;;;;;;3.38;1.30;;;12.90;99.90;;;;;;5138155;27;20058;-39
2023/08/29 04:03:55;;;;;;;2.97;1.25;;;12.90;99.90;;;;;;5137770;27;20052;-39
2023/08/29 04:06:21;;;;;;;2.80;1.20;;;12.80;99.90;;;;;;5138026;27;20039;-39
2023/08/29 04:08:47;;;;;;;3.75;1.40;;;12.90;99.90;;;;;;5137798;27;20043;-39
2023/08/29 04:11:12;;;;;;;3.63;1.33;;;12.90;99.90;;;;;;5137814;27;20050;-39
2023/08/29 04:13:38;;;;;;;2.47;0.83;;;12.90;99.90;;;;;;5137697;27;20043;-39
2023/08/29 04:16:04;;;;;;;2.73;1.03;;;12.80;99.90;;;;;;5137703;27;20051;-39
2023/08/29 04:18:33;;;;;;;1.90;0.80;;;12.80;99.90;;;;;;5137446;27;20035;-39
2023/08/29 04:20:59;;;;;;;1.95;0.57;;;12.80;99.90;;;;;;5137625;27;20050;-39
2023/08/29 04:23:25;;;;;;;2.03;0.38;;;12.80;99.90;;;;;;5137607;27;20039;-39
2023/08/29 04:25:58;;;;;;;1.42;0.60;;;12.70;99.90;;;;;;5137525;27;20125;-38
2023/08/29 04:28:24;;;;;;;1.98;0.63;;;12.70;99.90;;;;;;5137659;27;20035;-39
2023/08/29 04:30:49;;;;;;;1.63;0.70;;;12.70;99.90;;;;;;5137379;27;20518;-39
2023/08/29 04:33:15;;;;;;;2.57;0.87;;;12.70;99.90;;;;;;5137165;27;20277;-39
2023/08/29 04:35:40;;;;;;;1.57;0.73;;;12.70;99.90;;;;;;5118817;27;20137;-39
2023/08/29 04:38:07;;;;;;;2.03;0.50;;;12.70;99.90;;;;;;5118934;27;20039;-39
2023/08/29 04:40:32;;;;;;;1.60;0.70;;;12.70;99.90;;;;;;5137250;27;20076;-39
2023/08/29 04:42:58;;;;;;;1.98;0.90;;;12.60;99.90;;;;;;5137310;27;20043;-39
2023/08/29 04:45:24;;;;;;;1.47;0.60;;;12.60;99.90;;;;;;5118874;27;20058;-39
2023/08/29 04:47:49;;;;;;;1.53;0.73;;;12.60;99.90;;;;;;5136863;27;20510;-39
2023/08/29 04:50:15;;;;;;;1.67;0.70;;;12.40;99.90;;;;;;5137115;27;20043;-39
2023/08/29 04:52:41;;;;;;;1.00;0.50;;;12.40;99.90;;;;;;5137302;27;20468;-39
2023/08/29 04:55:07;;;;;;;1.73;0.50;;;12.30;99.90;;;;;;5135644;27;20055;-39
2023/08/29 04:57:33;;;;;;;1.90;0.70;;;12.30;99.90;;;;;;5136843;27;20135;-39
2023/08/29 05:00:00;;;;;;;0.88;0.43;;;12.20;99.90;;;;;;5153134;27;20050;-39
2023/08/29 05:02:26;;;;;;;2.08;0.52;;;12.20;99.90;;;;;;5136586;27;20503;-39
2023/08/29 05:04:52;;;;;;;1.10;0.50;;;12.20;99.90;;;;;;5136827;27;20135;-39
2023/08/29 05:07:19;;;;;;;1.38;0.50;;;12.20;99.90;;;;;;5136834;27;20122;-39
2023/08/29 05:09:44;;;;;;;1.05;0.40;;;12.20;99.90;;;;;;5136558;27;20556;-39
2023/08/29 05:12:10;;;;;;;3.83;0.47;;;12.10;99.90;;;;;;5136615;27;20083;-38
2023/08/29 05:14:39;;;;;;;1.63;0.73;;;12.10;99.90;;;;;;5136507;27;20126;-39
2023/08/29 05:17:06;;;;;;;1.15;0.40;;;12.10;99.90;;;;;;5136096;27;20072;-40
2023/08/29 05:19:31;;;;;;;0.90;0.47;;;12.20;99.90;;;;;;5118589;27;20047;-39
2023/08/29 05:21:57;;;;;;;2.80;0.80;;;12.20;99.90;;;;;;5136411;27;20050;-39
2023/08/29 05:24:23;;;;;;;1.13;0.60;;;12.20;99.90;;;;;;5136290;27;20046;-39
2023/08/29 05:26:49;;;;;;;2.13;0.70;;;12.20;99.90;;;;;;5136402;27;20050;-39
2023/08/29 05:29:14;;;;;;;1.15;0.52;;;12.30;99.90;;;;;;5136359;27;20055;-39
2023/08/29 05:31:40;;;;;;;2.00;0.70;;;12.30;99.90;;;;;;5136235;27;20070;-39
2023/08/29 05:34:06;;;;;;;1.10;0.60;;;12.30;99.90;;;;;;5136223;27;20285;-39
2023/08/29 05:36:31;;;;;;;2.33;0.80;;;12.30;99.90;;;;;;5136190;27;20484;-39
2023/08/29 05:38:57;;;;;;;1.57;0.60;;;12.40;99.90;;;;;;5136253;27;20539;-39
2023/08/29 05:41:22;;;;;;;3.57;0.60;;;12.40;99.90;;;;;;5136117;27;20418;-39
2023/08/29 05:43:48;;;;;;;1.63;0.67;;;12.50;99.90;;;;;;5135897;27;20487;-39
2023/08/29 05:46:14;;;;;;;1.23;0.60;;;12.50;99.90;;;;;;5135898;27;20384;-39
2023/08/29 05:48:40;;;;;;;1.92;0.60;;;12.50;99.90;;;;;;5135937;27;20035;-39
2023/08/29 05:51:05;;;;;;;2.10;0.60;;;12.60;99.90;;;;;;5135854;27;20051;-39
2023/08/29 05:53:31;;;;;;;1.53;0.53;;;12.60;99.90;;;;;;5135851;27;20099;-39
2023/08/29 05:55:57;;;;;;;2.83;0.80;;;12.60;99.90;;;;;;5135721;27;20051;-39
2023/08/29 05:58:22;;;;;;;4.90;1.23;;;12.60;99.90;;;;;;5117478;27;20039;-39
2023/08/29 06:00:48;;;;;;;3.93;1.20;;;12.70;99.90;;;;;;5135709;27;20043;-39
2023/08/29 06:03:14;;;;;;;6.35;1.55;;;12.70;99.90;;;;;;5135768;27;20284;-39
2023/08/29 06:05:43;;;;;;;3.00;1.20;;;12.80;99.90;;;;;;5135292;27;20043;-39
2023/08/29 06:08:08;;;;;;;2.63;1.15;;;12.80;99.90;;;;;;5135503;27;20043;-39
2023/08/29 06:10:34;;;;;;;5.22;1.40;;;13.00;99.90;;;;;;5117438;27;20058;-39
2023/08/29 06:13:00;;;;;;;6.07;1.60;;;13.10;99.90;;;;;;5135559;27;20478;-39
2023/08/29 06:15:26;;;;;;;4.18;1.40;;;13.20;99.90;;;;;;5135365;27;20375;-39
2023/08/29 06:17:52;;;;;;;3.30;1.25;;;13.30;99.90;;;;;;5135342;27;20043;-39
2023/08/29 06:20:18;;;;;;;3.97;1.43;;;13.40;99.90;;;;;;5135315;27;20523;-39
2023/08/29 06:22:44;;;;;;;4.30;1.57;;;13.50;99.90;;;;;;5135564;27;20534;-39
2023/08/29 06:25:10;;;;;;;4.18;1.48;;;13.60;99.90;;;;;;5135136;27;20054;-39
2023/08/29 06:27:37;;;;;;;5.68;1.77;;;13.80;99.90;;;;;;5116752;27;20047;-39
2023/08/29 06:30:04;;;;;;;3.13;1.30;;;13.90;99.90;;;;;;5134863;27;20047;-39
2023/08/29 06:32:29;;;;;;;3.90;1.88;;;14.00;99.90;;;;;;5134892;27;20376;-39
2023/08/29 06:34:56;;;;;;;4.30;1.73;;;14.10;99.90;;;;;;5135080;27;20046;-39
2023/08/29 06:37:21;;;;;;;4.50;1.60;;;14.20;99.90;;;;;;5135372;27;20304;-39
2023/08/29 06:39:47;;;;;;;3.95;1.63;;;14.20;99.90;;;;;;5134979;27;20380;-40
2023/08/29 06:42:13;;;;;;;3.30;1.35;;;14.30;99.90;;;;;;5135064;27;20039;-39
2023/08/29 06:44:39;;;;;;;3.53;1.60;;;14.30;99.90;;;;;;5134535;27;20047;-40
2023/08/29 06:47:05;;;;;;;3.50;1.30;;;14.40;99.90;;;;;;5134832;27;20629;-39
2023/08/29 06:49:30;;;;;;;2.83;1.25;;;14.40;99.90;;;;;;5116649;27;20084;-40
2023/08/29 06:51:56;;;;;;;2.42;1.10;;;14.50;99.90;;;;;;5134447;27;20142;-40
2023/08/29 06:54:22;;;;;;;3.70;1.75;;;14.60;99.90;;;;;;5134495;27;20035;-40
2023/08/29 06:56:49;;;;;;;3.10;1.15;;;14.60;99.90;;;;;;5134441;27;20046;-40
2023/08/29 06:59:15;;;;;;;2.72;1.23;;;14.70;99.90;;;;;;5134400;27;20035;-40
2023/08/29 07:01:41;;;;;;;3.75;1.48;;;14.70;99.90;;;;;;5134687;27;20061;-40
2023/08/29 07:04:09;;;;;;;3.88;1.42;;;14.70;99.90;;;;;;5134668;27;20051;-39
2023/08/29 07:06:35;;;;;;;3.00;1.10;;;14.80;99.90;;;;;;5116422;28;20042;-39
2023/08/29 07:09:00;;;;;;;3.23;1.10;;;14.90;99.90;;;;;;5116598;28;20477;-39
2023/08/29 07:11:26;;;;;;;2.47;1.00;;;15.00;99.90;;;;;;5116307;28;20415;-39
2023/08/29 07:13:52;;;;;;;3.22;1.20;;;15.00;99.90;;;;;;5134235;28;20360;-40
2023/08/29 07:16:18;;;;;;;2.42;1.02;;;15.10;99.90;;;;;;5134531;27;20043;-40
2023/08/29 07:18:44;;;;;;;2.83;0.97;;;15.10;99.90;;;;;;5138200;27;20069;-39
2023/08/29 07:21:10;;;;;;;1.40;0.77;;;15.20;99.90;;;;;;5139079;27;20359;-40
2023/08/29 07:23:36;;;;;;;2.50;1.20;;;15.20;99.90;;;;;;5138744;27;20047;-40
2023/08/29 07:26:02;;;;;;;3.22;1.00;;;15.20;99.90;;;;;;5120224;27;20066;-40
2023/08/29 07:28:27;;;;;;;2.55;1.13;;;15.30;99.90;;;;;;5138414;27;20047;-40
2023/08/29 07:30:53;;;;;;;2.47;1.03;;;15.40;99.90;;;;;;5138622;27;20073;-40
2023/08/29 07:33:19;;;;;;;2.63;0.80;;;15.40;99.90;;;;;;5138648;27;20276;-40
2023/08/29 07:35:47;;;;;;;4.57;0.98;;;15.50;99.90;;;;;;5138807;27;20050;-40
2023/08/29 07:38:13;;;;;;;3.10;0.90;;;15.50;99.90;;;;;;5138275;27;20046;-40
2023/08/29 07:40:39;;;;;;;2.10;0.77;;;15.60;99.90;;;;;;5138248;27;20500;-40
2023/08/29 07:43:07;;;;;;;4.03;1.20;;;15.60;99.90;;;;;;5138193;27;20046;-40
2023/08/29 07:45:34;;;;;;;2.30;0.85;;;15.60;99.90;;;;;;5138359;27;20047;-40
2023/08/29 07:48:01;;;;;;;2.95;0.90;;;15.70;99.90;;;;;;5120166;27;20058;-40
2023/08/29 07:50:27;;;;;;;2.70;1.00;;;15.70;99.90;;;;;;5138066;27;20055;-40
2023/08/29 07:52:53;;;;;;;;;;;15.70;99.90;;;;;;5138437;27;20046;-40
2023/08/29 07:55:20;;;;;;;2.38;1.00;;;15.80;99.90;;;;;;5138217;27;19927;-40
2023/08/29 07:57:49;;;;;;;2.53;0.90;;;15.80;99.90;;;;;;5119861;27;20433;-40
2023/08/29 08:00:16;;;;;;;3.75;0.88;;;15.90;99.90;;;;;;5138047;27;20553;-40
2023/08/29 08:02:42;;;;;;;2.88;0.90;;;15.80;99.90;;;;;;5137973;27;20046;-40
2023/08/29 08:05:14;;;;;;;3.95;1.15;;;15.90;99.90;;;;;;5137799;27;20090;-40
2023/08/29 08:07:41;;;;;;;2.67;0.90;;;15.90;99.90;;;;;;5137837;27;20050;-40
2023/08/29 08:10:08;;;;;;;2.28;0.80;;;15.90;99.90;;;;;;5137731;27;20086;-40
2023/08/29 08:12:35;;;;;;;2.92;1.00;;;15.90;99.90;;;;;;5137774;27;20091;-40
2023/08/29 08:15:01;;;;;;;2.85;1.33;;;16.00;99.90;;;;;;5102665;27;20039;-40
2023/08/29 08:17:27;;;;;;;1.80;0.95;;;16.00;99.90;;;;;;5137641;27;20043;-40
2023/08/29 08:19:53;;;;;;;3.40;1.05;;;16.10;99.90;;;;;;5137599;27;20046;-40
2023/08/29 08:22:18;;;;;;;2.65;0.93;;;16.10;99.90;;;;;;5119612;27;20122;-40
2023/08/29 08:24:44;;;;;;;2.58;1.10;;;16.10;99.90;;;;;;5119281;27;20039;-40
2023/08/29 08:27:10;;;;;;;2.88;1.00;;;16.20;99.90;;;;;;5137629;27;20134;-40
2023/08/29 08:29:35;;;;;;;2.28;1.00;;;16.20;99.90;;;;;;5137470;27;20368;-40
2023/08/29 08:32:01;;;;;;;3.03;1.17;;;16.20;99.90;;;;;;5137554;27;20047;-40
2023/08/29 08:34:27;;;;;;;3.95;1.20;;;16.30;99.90;;;;;;5137460;27;20284;-40
2023/08/29 08:36:52;;;;;;;3.15;1.40;;;16.30;99.90;;;;;;5137504;27;20050;-40
2023/08/29 08:39:18;;;;;;;2.63;1.08;;;16.30;99.90;;;;;;5136961;27;20078;-40
2023/08/29 08:41:44;;;;;;;3.20;1.20;;;16.30;99.90;;;;;;5137097;27;20051;-40
2023/08/29 08:44:12;;;;;;;3.33;1.15;;;16.40;99.90;;;;;;5137142;27;20047;-40
2023/08/29 08:46:38;;;;;;;3.10;1.20;;;16.40;99.90;;;;;;5118703;27;20451;-40
2023/08/29 08:49:06;;;;;;;3.97;1.00;;;16.40;99.90;;;;;;5137129;27;20471;-40
2023/08/29 08:51:34;;;;;;;5.53;1.63;;;16.50;99.90;;;;;;5137040;27;20054;-40
2023/08/29 08:54:00;;;;;;;2.97;1.42;;;16.50;99.90;;;;;;5136805;27;20051;-40
2023/08/29 08:56:28;;;;;;;2.70;1.23;;;16.60;99.90;;;;;;5136975;27;20104;-40
2023/08/29 08:58:54;;;;;;;2.92;1.35;;;16.60;99.90;;;;;;5136897;27;20046;-40
2023/08/29 09:01:20;;;;;;;3.60;1.20;;;16.60;99.90;;;;;;5136937;27;20047;-40
2023/08/29 09:03:46;;;;;;;2.97;1.10;;;16.70;99.90;;;;;;5136832;27;20481;-40
2023/08/29 09:06:14;;;;;;;4.18;1.20;;;16.70;99.90;;;;;;5136642;27;20043;-40
2023/08/29 09:08:40;;;;;;;1.77;0.73;;;16.80;99.90;;;;;;5136675;27;20054;-40
2023/08/29 09:11:06;;;;;;;3.28;1.30;;;16.80;99.90;;;;;;5136750;27;20129;-40
2023/08/29 09:13:32;;;;;;;1.80;0.90;;;16.90;99.90;;;;;;5136633;27;20046;-40
2023/08/29 09:15:59;;;;;;;4.97;1.00;;;16.90;99.90;;;;;;5136617;27;20039;-41
2023/08/29 09:18:28;;;;;;;3.83;1.33;;;17.00;99.90;;;;;;5136704;27;20062;-40
2023/08/29 09:20:57;;;;;;;2.13;0.75;;;17.00;99.90;;;;;;5136418;27;20047;-41
2023/08/29 09:23:25;;;;;;;1.98;0.77;;;17.00;99.90;;;;;;5136444;27;20058;-40
2023/08/29 09:25:58;;;;;;;2.00;0.70;;;17.10;99.90;;;;;;5136359;27;20043;-40
2023/08/29 09:28:31;;;;;;;2.13;0.80;;;17.10;99.90;;;;;;5136432;27;20050;-40
2023/08/29 09:31:08;;;;;;;3.40;0.70;;;17.20;99.90;;;;;;5136066;27;20050;-40
2023/08/29 09:33:34;;;;;;;0.70;0.38;;;17.20;99.90;;;;;;5135903;27;20050;-40
2023/08/29 09:36:01;;;;;;;1.50;0.70;;;17.20;99.90;;;;;;5136171;27;20039;-40
2023/08/29 09:38:34;;;;;;;1.42;0.68;;;17.30;99.90;;;;;;5136385;27;20499;-40
2023/08/29 09:41:01;;;;;;;1.90;0.50;;;17.30;99.90;;;;;;5135411;27;20043;-40
2023/08/29 09:43:30;;;;;;;1.13;0.50;;;17.40;99.90;;;;;;5136028;27;20051;-40
2023/08/29 09:45:56;;;;;;;1.83;0.77;;;17.40;99.90;;;;;;5135677;27;20062;-41
2023/08/29 09:48:22;;;;;;;1.10;0.50;;;17.50;99.90;;;;;;5135634;27;20096;-40
2023/08/29 09:50:49;;;;;;;1.33;0.57;;;17.50;99.90;;;;;;5135636;27;20047;-40
2023/08/29 09:53:19;;;;;;;1.13;0.50;;;17.60;99.90;;;;;;5117065;27;20055;-40
2023/08/29 09:55:46;;;;;;;0.70;0.40;;;17.60;99.90;;;;;;5135873;27;20169;-40
2023/08/29 09:58:14;;;;;;;0.73;0.38;;;17.70;99.90;;;;;;5135773;27;20043;-40
2023/08/29 10:00:41;;;;;;;1.42;0.70;;;17.70;99.90;;;;;;5135593;27;20062;-41
2023/08/29 10:03:08;;;;;;;;;;;17.80;99.90;;;;;;5136092;27;20043;-40
2023/08/29 10:05:36;;;;;;;1.83;0.60;;;17.90;99.90;;;;;;5135640;27;20015;-40
2023/08/29 10:08:51;;;;;;;1.38;0.70;;;17.90;99.90;;;;;;5135510;27;20050;-41
2023/08/29 10:11:19;;;;;;;2.05;0.77;;;18.10;99.90;;;;;;5071954;28;20048;-41
2023/08/29 10:13:48;;;;;;;2.25;0.82;;;18.10;99.90;;;;;;5124457;27;20492;-40
2023/08/29 10:16:15;;;;;;;2.47;0.90;;;18.20;99.90;;;;;;5135365;27;20043;-40
2023/08/29 10:18:42;;;;;;;2.42;1.20;;;18.20;99.90;;;;;;5135279;27;20125;-40
2023/08/29 10:21:09;;;;;;;2.67;0.98;;;18.30;99.90;;;;;;5135353;27;20051;-40
2023/08/29 10:23:36;;;;;;;2.67;1.17;;;18.40;99.90;;;;;;5135066;27;20043;-41
2023/08/29 10:26:02;;;;;;;1.85;0.90;;;18.40;99.90;;;;;;5135435;27;20047;-40
2023/08/29 10:28:29;;;;;;;3.03;0.90;;;18.50;99.90;;;;;;5135173;27;20043;-40
2023/08/29 10:30:58;;;;;;;;;;;18.40;99.90;;;;;;5135556;27;20039;-41
2023/08/29 10:33:24;;;;;;;2.13;0.73;;;18.50;99.90;;;;;;5116927;27;19919;-40
2023/08/29 10:35:50;;;;;;;1.27;0.70;;;18.50;99.90;;;;;;5134946;27;20054;-40
2023/08/29 10:38:16;;;;;;;1.40;0.68;;;18.50;99.90;;;;;;5134782;27;20036;-41
2023/08/29 10:40:43;;;;;;;2.03;0.95;;;18.50;99.90;;;;;;5135462;27;20111;-40
2023/08/29 10:43:20;;;;;;;3.03;0.93;;;18.60;99.90;;;;;;5134897;27;20092;-41
2023/08/29 10:45:47;;;;;;;2.60;1.20;;;18.60;99.90;;;;;;5135056;27;20479;-40
2023/08/29 10:48:20;;;;;;;2.47;1.15;;;18.60;99.90;;;;;;5134833;27;20081;-40
2023/08/29 10:51:08;;;;;;;2.83;1.13;;;18.70;99.90;;;;;;5134727;27;20396;-40
2023/08/29 10:53:38;;;;;;;3.78;1.35;;;18.70;99.90;;;;;;5134503;27;20055;-41
2023/08/29 10:56:07;;;;;;;2.50;1.05;;;18.80;99.90;;;;;;5134790;27;20090;-41
2023/08/29 10:58:38;;;;;;;2.33;0.70;;;18.90;99.90;;;;;;5116335;27;20050;-40
2023/08/29 11:01:23;;;;;;;1.73;0.73;;;19.00;99.90;;;;;;5134532;27;20456;-40
2023/08/29 11:03:50;;;;;;;1.50;0.68;;;19.10;99.90;;;;;;5134722;27;20061;-41
2023/08/29 11:06:21;;;;;;;1.85;0.80;;;19.20;99.90;;;;;;5134877;27;20104;-40
2023/08/29 11:08:46;;;;;;;2.65;1.20;;;19.20;99.90;;;;;;5134661;27;20403;-40
2023/08/29 11:11:17;;;;;;;2.33;1.20;;;19.30;99.90;;;;;;5134567;28;20047;-41
2023/08/29 11:13:57;;;;;;;3.08;1.30;;;19.40;99.90;;;;;;5134454;28;20054;-41
2023/08/29 11:16:24;;;;;;;2.22;1.00;;;19.60;99.90;;;;;;5135033;28;20055;-41
2023/08/29 11:19:06;;;;;;;2.58;1.13;;;19.70;99.90;;;;;;5134406;28;20047;-41
2023/08/29 11:21:33;;;;;;;3.67;1.30;;;19.70;99.90;;;;;;5134627;28;20407;-41
2023/08/29 11:23:59;;;;;;;2.15;1.20;;;19.80;99.90;;;;;;5134453;28;20054;-41
2023/08/29 11:26:25;;;;;;;2.45;1.25;;;19.90;99.90;;;;;;5134214;28;20050;-41
2023/08/29 11:28:51;;;;;;;3.03;1.30;;;19.90;99.90;;;;;;5134716;28;20039;-41
2023/08/29 11:31:18;;;;;;;2.10;1.00;;;19.90;99.90;;;;;;5134439;28;20047;-40
2023/08/29 11:33:48;;;;;;;2.17;0.80;;;19.90;99.90;;;;;;5134679;28;20054;-40
2023/08/29 11:36:15;;;;;;;2.22;0.85;;;19.90;99.90;;;;;;5134421;28;20560;-40
2023/08/29 11:38:43;;;;;;;2.83;0.95;;;19.80;99.90;;;;;;5133976;28;20530;-41
2023/08/29 11:41:10;;;;;;;2.47;0.90;;;19.70;99.90;;;;;;5134626;28;20062;-41
2023/08/29 11:43:36;;;;;;;2.25;0.90;;;19.70;99.90;;;;;;5134296;28;20039;-41
2023/08/29 11:46:04;;;;;;;2.95;0.88;;;19.60;99.90;;;;;;5134231;28;20047;-40
2023/08/29 11:48:31;;;;;;;2.45;1.00;;;19.60;99.90;;;;;;5134211;28;20054;-41
2023/08/29 11:51:01;;;;;;;1.55;0.80;;;19.60;99.90;;;;;;5115767;28;20055;-41
2023/08/29 11:53:30;;;;;;;3.60;1.17;;;19.60;99.90;;;;;;5134362;28;20059;-41
2023/08/29 11:56:00;;;;;;;1.90;0.82;;;19.60;99.90;;;;;;5134109;28;20539;-41
2023/08/29 11:58:36;;;;;;;1.55;0.75;;;19.60;99.90;;;;;;5134344;28;20129;-41
2023/08/29 12:01:10;;;;;;;2.08;1.08;;;19.60;99.90;;;;;;5116043;28;20058;-41
2023/08/29 12:03:38;;;;;;;1.42;0.60;;;19.60;99.90;;;;;;5135750;27;20103;-40
2023/08/29 12:06:10;;;;;;;1.92;0.80;;;19.60;99.90;;;;;;5137870;27;20043;-41
2023/08/29 12:08:40;;;;;;;2.53;0.82;;;19.60;99.90;;;;;;5138082;27;20065;-41
2023/08/29 12:11:07;;;;;;;1.70;0.80;;;19.60;99.90;;;;;;5137949;27;20061;-40
2023/08/29 12:13:37;;;;;;;8.23;1.00;;;19.50;99.90;;;;;;5137906;27;20122;-40
2023/08/29 12:16:04;;;;;;;1.67;0.73;;;19.50;99.90;;;;;;5137754;27;20130;-40
2023/08/29 12:18:32;;;;;;;3.30;0.90;;;19.50;99.90;;;;;;5119193;27;20057;-40
2023/08/29 12:21:13;;;;;;;2.67;0.85;;;19.50;99.90;;;;;;5137722;27;20105;-40
2023/08/29 12:23:40;;;;;;;2.63;1.02;;;19.50;99.90;;;;;;5137712;27;20069;-40
2023/08/29 12:26:05;;;;;;;;;;;19.60;99.90;;;;;;5138199;27;20058;-41
2023/08/29 12:28:31;;;;;;;2.58;1.20;;;19.60;99.90;;;;;;5137398;27;20299;-41
2023/08/29 12:30:57;;;;;;;2.78;1.30;;;19.60;99.90;;;;;;5137286;27;20421;-41
2023/08/29 12:33:23;;;;;;;3.33;1.55;;;19.60;99.90;;;;;;5137289;27;20043;-41
2023/08/29 12:35:50;;;;;;;3.25;1.60;;;19.60;99.90;;;;;;5137677;27;20396;-41
2023/08/29 12:38:16;;;;;;;3.08;1.50;;;19.70;99.90;;;;;;5137255;27;20039;-40
2023/08/29 12:40:44;;;;;;;3.70;1.20;;;19.60;99.90;;;;;;5137184;27;20043;-40
2023/08/29 12:43:11;;;;;;;3.25;1.30;;;19.60;99.90;;;;;;5137150;27;20403;-41
2023/08/29 12:45:36;;;;;;;4.35;1.90;;;19.60;99.90;;;;;;5136915;27;20051;-41
2023/08/29 12:48:03;;;;;;;4.65;1.77;;;19.60;99.90;;;;;;5137716;27;20035;-41